Data for 09/02/2005

Time Sea-Level Adjusted Pressure Absolute Pressure Temperature Relative Humidity Dew Point   
(mb) (inHg) (mb) (inHg) (C) (F) (%) (C) (F)
00:05 1019 30.09 848 25.04 16.4 61.6 32 -0 32
00:10 1019 30.09 848 25.04 16.5 61.6 33 0.4 32.8
00:15 1019 30.09 848 25.04 16 60.7 35 0.7 33.2
00:20 1019 30.09 848 25.04 15.6 60.2 36 0.7 33.2
00:25 1019 30.09 848 25.04 15.5 59.9 36 0.5 32.8
00:30 1019 30.09 848 25.04 15.5 59.9 39 1.6 34.8
00:35 1019 30.09 848 25.04 15.2 59.3 40 1.8 35.2
00:40 1019 30.09 848 25.04 14.5 58 39 0.9 33.6
00:45 1019 30.09 848 25.04 14.9 58.7 37 0.3 32.5
00:50 1019 30.09 848 25.04 15.2 59.3 37 0.5 32.9
00:55 1019 30.09 848 25.04 15 58.9 40 1.6 35
01:00 1019 30.09 848 25.04 14.2 57.5 41 1.2 34.2
01:05 1019 30.09 848 25.04 14.1 57.3 42 1.3 34.4
01:10 1019 30.09 848 25.04 13.9 57 43 1.7 35
01:15 1019 30.09 848 25.04 13.9 57 43 1.5 34.6
01:20 1019 30.09 848 25.04 13.7 56.7 46 2.5 36.5
01:25 1019 30.09 848 25.04 14.2 57.5 39 0.5 33
01:30 1019 30.09 848 25.04 14.3 57.8 44 2.2 35.9
01:35 1019 30.09 848 25.04 13.7 56.7 43 1.5 34.7
01:40 1019 30.09 848 25.04 13.4 56.1 43 1.2 34.2
01:45 1019 30.09 848 25.04 13.9 57 39 0.2 32.4
01:50 1019 30.09 848 25.04 14.4 57.9 39 0.8 33.4
01:55 1019 30.09 848 25.04 14.2 57.5 45 2.4 36.2
02:00 1019 30.09 848 25.04 14 57.1 42 1.2 34.1
02:05 1019 30.09 848 25.04 13.7 56.7 45 2.1 35.7
02:10 1019 30.09 848 25.04 13.7 56.6 42 1.1 34
02:15 1019 30.09 848 25.04 13.7 56.7 44 1.9 35.4
02:20 1019 30.09 848 25.04 14.1 57.3 42 1.3 34.3
02:25 1019 30.09 848 25.04 14.3 57.8 44 2.2 36
02:30 1019 30.09 848 25.04 14.2 57.5 39 0.7 33.2
02:35 1019 30.09 848 25.04 14.2 57.6 45 2.5 36.5
02:40 1019 30.09 848 25.04 14.1 57.4 40 0.9 33.6
02:45 1019 30.09 848 25.04 13.9 57.1 40 0.7 33.2
02:50 1019 30.09 849 25.07 13.8 56.9 40 0.5 32.9
02:55 1019 30.09 849 25.07 13.8 56.8 40 0.5 33
03:00 1019 30.09 849 25.07 13.4 56.1 40 0 32
03:05 1019 30.09 849 25.07 12.7 54.8 51 2.8 37.1
03:10 1019 30.09 849 25.07 12.1 53.7 45 0.6 33
03:15 1019 30.09 849 25.07 11.7 53 55 3.1 37.6
03:20 1019 30.09 849 25.07 11.7 53 45 0.3 32.5
03:25 1019 30.09 848 25.04 11.9 53.4 48 1.2 34.2
03:30 1019 30.09 848 25.04 11.9 53.3 44 -0 31.9
03:35 1019 30.09 848 25.04 12.1 53.9 43 -0.1 31.7
03:40 1019 30.09 848 25.04 12 53.6 44 0.2 32.4
03:45 1019 30.09 848 25.04 12.2 53.9 48 1.5 34.7
03:50 1019 30.09 848 25.04 12.4 54.4 41 -0.4 31.2
03:55 1019 30.09 848 25.04 12.6 54.7 51 2.7 36.9
04:00 1019 30.09 848 25.04 12.4 54.3 43 0.1 32.2
04:05 1019 30.09 848 25.04 12.6 54.6 44 0.6 33.2
04:10 1019 30.09 848 25.04 12.4 54.4 43 0.4 32.7
04:15 1019 30.09 848 25.04 12.3 54.2 42 0 32
04:20 1019 30.09 848 25.04 12.4 54.4 43 0.1 32.3
04:25 1019 30.09 848 25.04 12.2 54 44 0.4 32.7
04:30 1019 30.09 848 25.04 12 53.6 45 0.4 32.8
04:35 1019 30.09 848 25.04 11.8 53.3 44 0.1 32.1
04:40 1019 30.09 848 25.04 12.1 53.8 43 0 32.1
04:45 1019 30.09 848 25.04 12.1 53.8 43 -0 32
04:50 1019 30.09 848 25.04 12.3 54.1 43 0.2 32.4
04:55 1019 30.09 848 25.04 12.2 54 43 -0 32
05:00 1019 30.09 848 25.04 12.2 54 42 -0.3 31.4
05:05 1019 30.09 848 25.04 12.2 53.9 43 0 32.1
05:10 1019 30.09 848 25.04 11.9 53.4 42 -0.5 31.1
05:15 1019 30.09 848 25.04 12 53.6 42 -0.5 31.1
05:20 1019 30.09 848 25.04 12.3 54.2 40 -0.7 30.7
05:25 1019 30.09 848 25.04 12.2 53.9 40 -0.8 30.6
05:30 1019 30.09 848 25.04 11.9 53.4 43 -0.3 31.5
05:35 1019 30.09 848 25.04 11.3 52.4 45 -0.1 31.9
05:40 1019 30.09 848 25.04 10.8 51.4 46 -0.4 31.3
05:45 1019 30.09 848 25.04 11 51.7 52 1.5 34.7
05:50 1019 30.09 848 25.04 11.2 52.2 43 -1 30.2
05:55 1019 30.09 848 25.04 11.3 52.3 51 1.7 35
06:00 1019 30.09 848 25.04 11.3 52.3 43 -0.9 30.3
06:05 1019 30.09 848 25.04 11.2 52.2 44 -0.6 30.9
06:10 1019 30.09 848 25.04 11.3 52.3 42 -1 30.2
06:15 1019 30.09 848 25.04 11.2 52.1 43 -1 30.2
06:20 1019 30.09 848 25.04 11.1 52 48 0.6 33.1
06:25 1019 30.09 848 25.04 11.2 52.2 41 -1.5 29.3
06:30 1019 30.09 848 25.04 11.4 52.4 49 1.1 34
06:35 1019 30.09 848 25.04 11.2 52.2 43 -0.9 30.4
06:40 1019 30.09 848 25.04 10.7 51.3 48 0.3 32.5
06:45 1019 30.09 848 25.04 11 51.8 42 -1.3 29.7
06:50 1019 30.09 848 25.04 10.8 51.4 43 -1.2 29.8
06:55 1019 30.09 848 25.04 10.9 51.6 41 -1.7 28.9
07:00 1019 30.09 848 25.04 11.2 52.2 41 -1.6 29.2
07:05 1019 30.09 848 25.04 11.3 52.4 43 -0.8 30.6
07:10 1019 30.09 848 25.04 11.6 52.9 39 -1.7 29
07:15 1019 30.09 848 25.04 11.5 52.7 40 -1.4 29.5
07:20 1019 30.09 848 25.04 11.5 52.8 40 -1.7 29
07:25 1019 30.09 849 25.07 11.6 52.9 38 -2.1 28.3
07:30 1019 30.09 849 25.07 11.7 53 40 -1.6 29.2
07:35 1019 30.09 849 25.07 11.5 52.6 40 -1.6 29.1
07:40 1019 30.09 849 25.07 12 53.6 34 -3.2 26.3
07:45 1019 30.09 849 25.07 12.8 55 38 -1.1 30.1
07:50 1019 30.09 849 25.07 12.8 55 34 -2.7 27.2
07:55 1020 30.12 849 25.07 13.6 56.4 34 -2 28.4
08:00 1020 30.12 849 25.07 13.8 56.8 35 -1.2 29.9
08:05 1020 30.12 849 25.07 14 57.2 37 -0.4 31.3
08:10 1020 30.12 849 25.07 14.3 57.7 35 -1 30.3
08:15 1020 30.12 849 25.07 14.8 58.6 35 -0.3 31.4
08:20 1020 30.12 849 25.07 14.4 58 40 1 33.8
08:25 1020 30.12 849 25.07 13.9 57 39 0.3 32.6
08:30 1020 30.12 849 25.07 13.9 57 42 1.2 34.2
08:35 1020 30.12 849 25.07 13.9 57 50 3.7 38.7
08:40 1020 30.12 849 25.07 14.1 57.3 43 1.7 35.1
08:45 1020 30.12 849 25.07 14.3 57.8 41 1.5 34.7
08:50 1020 30.12 849 25.07 15 59.1 39 1.4 34.6
08:55 1020 30.12 849 25.07 15.3 59.6 42 2.5 36.5
09:00 1020 30.12 849 25.07 15.7 60.2 35 0.2 32.4
09:05 1020 30.12 849 25.07 16.1 60.9 35 0.7 33.2
09:10 1020 30.12 849 25.07 16.3 61.3 34 0.5 33
09:15 1020 30.12 849 25.07 16.2 61.2 34 0.5 32.9
09:20 1020 30.12 849 25.07 16.7 62 33 0.5 32.8
09:25 1020 30.12 849 25.07 16.9 62.5 34 0.9 33.6
09:30 1020 30.12 849 25.07 17.2 63 32 0.4 32.7
09:35 1020 30.12 849 25.07 17.4 63.2 38 2.9 37.3
09:40 1020 30.12 849 25.07 17.2 63 32 0.6 33.2
09:45 1020 30.12 849 25.07 18.1 64.6 30 0.6 33.1
09:50 1020 30.12 849 25.07 18.6 65.4 30 1 33.8
09:55 1020 30.12 849 25.07 18.6 65.6 30 0.9 33.7
10:00 1020 30.12 849 25.07 19.1 66.3 31 1.7 35
10:05 1020 30.12 849 25.07 19.1 66.4 30 1.2 34.1
10:10 1020 30.12 849 25.07 18.7 65.6 31 1.3 34.4
10:15 1020 30.12 849 25.07 18.3 64.9 30 0.4 32.7
10:20 1020 30.12 849 25.07 18.3 65 29 0.4 32.7
10:25 1020 30.12 849 25.07 18.7 65.6 29 0.4 32.7
10:30 1020 30.12 849 25.07 19 66.2 30 1.1 33.9
10:35 1020 30.12 849 25.07 19.4 66.9 30 1.5 34.7
10:40 1020 30.12 849 25.07 19.2 66.6 30 1.3 34.3
10:45 1020 30.12 849 25.07 19.2 66.6 30 1.5 34.6
10:50 1020 30.12 849 25.07 20 67.9 28 1.2 34.2
10:55 1020 30.12 849 25.07 20 67.9 29 1.4 34.5
11:00 1020 30.12 849 25.07 20.1 68.1 27 0.7 33.3
11:05 1020 30.12 849 25.07 20.7 69.2 27 1 33.8
11:10 1020 30.12 849 25.07 21.9 71.4 25 1.4 34.5
11:15 1020 30.12 849 25.07 21.9 71.3 25 0.9 33.7
11:20 1020 30.12 849 25.07 22.3 72.1 25 1.4 34.5
11:25 1020 30.12 849 25.07 22.6 72.6 26 2 35.7
11:30 1020 30.12 849 25.07 23.3 73.9 25 2.4 36.4
11:35 1020 30.12 849 25.07 22.2 72 25 1.7 35
11:40 1020 30.12 849 25.07 21.6 70.8 25 1 33.8
11:45 1020 30.12 849 25.07 22.3 72.1 28 2.9 37.2
11:50 1020 30.12 849 25.07 22.5 72.5 28 3.2 37.7
11:55 1020 30.12 849 25.07 22.6 72.8 27 2.8 37.1
12:00 1020 30.12 849 25.07 22.7 72.9 27 2.7 36.9
12:05 1019 30.09 849 25.07 22.7 72.8 27 2.7 36.9
12:10 1019 30.09 849 25.07 23.3 74 25 2.3 36.2
12:15 1019 30.09 849 25.07 23.6 74.4 23 1.7 35.1
12:20 1019 30.09 849 25.07 23 73.4 24 1.8 35.2
12:25 1019 30.09 849 25.07 23.6 74.5 23 1.6 34.8
12:30 1019 30.09 849 25.07 23.8 74.8 22 1.3 34.4
12:35 1019 30.09 849 25.07 24.1 75.3 23 1.6 35
12:40 1019 30.09 849 25.07 24 75.2 23 1.8 35.3
12:45 1019 30.09 849 25.07 24.6 76.3 22 1.6 34.8
12:50 1019 30.09 848 25.04 25 76.9 22 2.1 35.8
12:55 1019 30.09 848 25.04 25.2 77.4 22 2.1 35.8
13:00 1019 30.09 848 25.04 25.3 77.5 20 1.3 34.3
13:05 1019 30.09 848 25.04 25.7 78.3 20 1.2 34.1
13:10 1019 30.09 848 25.04 25.8 78.5 20 1.3 34.4
13:15 1019 30.09 848 25.04 25.5 77.8 19 0.4 32.7
13:20 1019 30.09 848 25.04 26.3 79.3 17 -0.7 30.7
13:25 1019 30.09 848 25.04 26 78.8 18 -0.2 31.7
13:30 1019 30.09 848 25.04 27.1 80.8 16 -0.6 30.9
13:35 1019 30.09 848 25.04 27.3 81.2 15 -1.1 30.1
13:40 1019 30.09 848 25.04 27.3 81.1 16 -0.3 31.4
13:45 1018 30.06 848 25.04 27.8 82 16 -0.3 31.5
13:50 1018 30.06 848 25.04 28.1 82.6 15 -0.9 30.3
13:55 1018 30.06 848 25.04 27.1 80.8 16 -0.6 31
14:00 1018 30.06 847 25.01 27.8 82 15 -0.9 30.3
14:05 1018 30.06 847 25.01 28 82.5 15 -0.8 30.6
14:10 1018 30.06 847 25.01 27.8 82.1 15 -1.1 29.9
14:15 1018 30.06 847 25.01 28.5 83.4 13 -2.2 28
14:20 1018 30.06 847 25.01 28.4 83 13 -2.9 26.8
14:25 1018 30.06 847 25.01 28.2 82.7 13 -2.4 27.6
14:30 1018 30.06 847 25.01 28.4 83.1 13 -2.8 27
14:35 1018 30.06 847 25.01 28.7 83.7 12 -3.3 26.1
14:40 1018 30.06 847 25.01 28.5 83.3 12 -3.2 26.2
14:45 1018 30.06 847 25.01 28.4 83.1 12 -4 24.8
14:50 1018 30.06 847 25.01 28.5 83.4 12 -3.3 26.1
14:55 1018 30.06 847 25.01 28.5 83.3 12 -3.3 26.1
15:00 1018 30.06 847 25.01 27.9 82.2 13 -3.2 26.2
15:05 1018 30.06 847 25.01 27.9 82.1 12 -3.4 25.9
15:10 1018 30.06 847 25.01 28.4 83.1 12 -3.7 25.3
15:15 1018 30.06 847 25.01 27.6 81.8 12 -3.7 25.3
15:20 1017 30.03 847 25.01 28 82.5 11 -4.3 24.2
15:25 1017 30.03 847 25.01 27.4 81.3 12 -4.6 23.8
15:30 1017 30.03 847 25.01 27.4 81.3 12 -4.5 23.9
15:35 1017 30.03 847 25.01 27.2 81 11 -5.2 22.7
15:40 1017 30.03 847 25.01 27.5 81.6 12 -4.6 23.7
15:45 1017 30.03 847 25.01 27.8 82 12 -4.3 24.2
15:50 1017 30.03 847 25.01 28.2 82.7 12 -3.8 25.1
15:55 1017 30.03 847 25.01 28.6 83.4 11 -4.2 24.5
16:00 1017 30.03 846 24.98 27.7 81.9 12 -4.4 24.1
16:05 1017 30.03 846 24.98 28.3 83 12 -3.9 24.9
16:10 1017 30.03 846 24.98 29.1 84.5 12 -3 26.6
16:15 1017 30.03 846 24.98 29.8 85.6 12 -2.5 27.4
16:20 1017 30.03 846 24.98 29.8 85.6 11 -3.1 26.5
16:25 1017 30.03 846 24.98 28.8 83.9 12 -3.6 25.6
16:30 1017 30.03 846 24.98 28.3 83 12 -3.1 26.3
16:35 1017 30.03 846 24.98 28.4 83.1 11 -4.3 24.3
16:40 1017 30.03 846 24.98 28.6 83.4 11 -4.2 24.5
16:45 1017 30.03 846 24.98 29.2 84.5 12 -3.3 26
16:50 1017 30.03 846 24.98 29.5 85.2 12 -3 26.5
16:55 1017 30.03 846 24.98 30 85.9 12 -2.6 27.3
17:00 1017 30.03 846 24.98 30.4 86.7 11 -2.7 27.2
17:05 1017 30.03 846 24.98 30.5 86.8 12 -2.3 27.8
17:10 1017 30.03 846 24.98 29.6 85.3 12 -2.7 27.1
17:15 1017 30.03 846 24.98 29.4 84.9 12 -2.2 28.1
17:20 1017 30.03 846 24.98 29.8 85.7 11 -3 26.7
17:25 1016 30 846 24.98 29.8 85.6 12 -2.9 26.8
17:30 1016 30 846 24.98 28.8 83.9 13 -2.5 27.6
17:35 1016 30 846 24.98 28.6 83.4 12 -2.9 26.8
17:40 1016 30 846 24.98 28.7 83.6 12 -3.5 25.6
17:45 1016 30 846 24.98 28.8 83.8 12 -2.9 26.8
17:50 1016 30 846 24.98 29 84.1 11 -3.6 25.5
17:55 1016 30 846 24.98 29.2 84.5 12 -2.5 27.4
18:00 1016 30 846 24.98 29.4 84.9 12 -2.1 28.2
18:05 1016 30 845 24.95 29.3 84.7 12 -2.2 28
18:10 1016 30 846 24.98 28.8 83.9 12 -3 26.5
18:15 1016 30 846 24.98 28.6 83.5 14 -1 30.3
18:20 1016 30 846 24.98 27.9 82.1 16 -0.3 31.5
18:25 1016 30 846 24.98 27.8 82 13 -2.6 27.4
18:30 1016 30 846 24.98 27.6 81.6 16 0.1 32.2
18:35 1016 30 846 24.98 27.5 81.4 15 -1.4 29.5
18:40 1016 30 846 24.98 27.4 81.3 16 -0.6 31
18:45 1016 30 846 24.98 27.3 81.1 22 4 39.1
18:50 1016 30 846 24.98 27 80.5 21 2.9 37.2
18:55 1016 30 846 24.98 26.8 80.2 18 0.7 33.2
19:00 1016 30 846 24.98 26.6 79.8 22 3.2 37.7
19:05 1016 30 846 24.98 26.4 79.6 18 0.8 33.5
19:10 1016 30 845 24.95 26.2 79.1 22 2.9 37.2
19:15 1016 30 845 24.95 25.8 78.4 25 4.5 40
19:20 1016 30 845 24.95 25.5 77.8 23 2.8 37.1
19:25 1016 30 845 24.95 25.1 77.2 25 3.9 39.1
19:30 1016 30 845 24.95 24.7 76.4 26 4.1 39.4
19:35 1016 30 846 24.98 24.4 75.9 26 3.9 39
19:40 1016 30 846 24.98 24.4 75.9 24 2.6 36.8
19:45 1016 30 846 24.98 24.3 75.8 28 4.9 40.8
19:50 1016 30 846 24.98 24.2 75.6 28 5 41
19:55 1017 30.03 846 24.98 23.5 74.3 33 6.7 44
20:00 1017 30.03 846 24.98 23 73.5 33 6.1 42.9
20:05 1016 30 846 24.98 23.1 73.5 25 2.5 36.4
20:10 1017 30.03 846 24.98 23.2 73.8 28 3.9 39.1
20:15 1017 30.03 846 24.98 22.8 73 28 3.5 38.3
20:20 1017 30.03 846 24.98 22.9 73.3 24 1.2 34.2
20:25 1016 30 846 24.98 23 73.5 24 1.4 34.6
20:30 1017 30.03 846 24.98 22.8 73.1 25 1.8 35.3
20:35 1017 30.03 846 24.98 23 73.3 20 -1.3 29.7
20:40 1017 30.03 846 24.98 23.4 74.2 19 -1 30.2
20:45 1017 30.03 846 24.98 23.3 74 19 -1.3 29.7
20:50 1017 30.03 846 24.98 23.4 74.1 18 -1.9 28.6
20:55 1017 30.03 846 24.98 23.6 74.5 19 -1.2 29.8
21:00 1017 30.03 846 24.98 23.5 74.3 20 -0.3 31.5
21:05 1017 30.03 846 24.98 22.4 72.4 24 0.9 33.6
21:10 1017 30.03 846 24.98 21.3 70.4 25 0.8 33.5
21:15 1017 30.03 846 24.98 20.9 69.6 26 0.9 33.6
21:20 1017 30.03 846 24.98 20.8 69.5 29 2.2 35.9
21:25 1017 30.03 846 24.98 20.8 69.5 25 0.3 32.5
21:30 1017 30.03 846 24.98 20.8 69.5 24 -0.4 31.3
21:35 1017 30.03 846 24.98 21.3 70.3 22 -0.8 30.5
21:40 1017 30.03 846 24.98 21.3 70.3 25 0.5 32.9
21:45 1017 30.03 846 24.98 21.5 70.6 22 -1 30.2
21:50 1017 30.03 846 24.98 22.3 72.1 20 -1.4 29.5
21:55 1017 30.03 846 24.98 21.7 71.1 23 -0 32
22:00 1017 30.03 846 24.98 21 69.9 23 -0.7 30.7
22:05 1017 30.03 846 24.98 21.2 70.1 21 -1.6 29.2
22:10 1017 30.03 846 24.98 21.7 71.1 19 -3 26.6
22:15 1017 30.03 846 24.98 22.5 72.5 18 -2.9 26.8
22:20 1017 30.03 846 24.98 22.5 72.6 18 -2.6 27.2
22:25 1017 30.03 846 24.98 22.6 72.8 17 -3.1 26.4
22:30 1017 30.03 846 24.98 22.7 72.8 17 -3.3 26.1
22:35 1017 30.03 846 24.98 22.6 72.7 18 -3 26.6
22:40 1017 30.03 846 24.98 22.4 72.3 18 -3.2 26.2
22:45 1017 30.03 846 24.98 22.4 72.3 17 -3.3 26.1
22:50 1017 30.03 846 24.98 22.4 72.3 17 -3.6 25.6
22:55 1017 30.03 846 24.98 22.4 72.3 17 -3.4 25.8
23:00 1017 30.03 846 24.98 22.4 72.2 17 -3.7 25.3
23:05 1017 30.03 846 24.98 22.4 72.3 17 -4 24.8
23:10 1017 30.03 846 24.98 22.3 72.2 16 -4.4 24
23:15 1017 30.03 846 24.98 22.5 72.5 16 -4.5 23.9
23:20 1017 30.03 846 24.98 22.5 72.6 16 -4.3 24.2
23:25 1017 30.03 846 24.98 22.6 72.6 16 -4.3 24.3
23:30 1017 30.03 846 24.98 22.4 72.4 17 -4 24.8
23:35 1017 30.03 846 24.98 22.2 71.9 16 -4.3 24.3
23:40 1017 30.03 846 24.98 22.4 72.3 16 -4.4 24.1
23:45 1017 30.03 846 24.98 22.3 72.2 16 -4.4 24
23:50 1017 30.03 846 24.98 22.5 72.5 15 -4.8 23.3
23:55 1017 30.03 846 24.98 22.6 72.7 16 -4.6 23.7
24:00 1017 30.03 846 24.98 22.6 72.6 16 -4.2 24.4